sensor_id;sensor_type;location;lat;lon;timestamp;pressure;altitude;pressure_sealevel;temperature;humidity
42887;BME280;29032;56.028;92.904;2023-08-12T00:04:55;98345.88;;;19.79;63.34
42887;BME280;29032;56.028;92.904;2023-08-12T00:09:58;98347.75;;;19.86;62.26
42887;BME280;29032;56.028;92.904;2023-08-12T00:15:00;98359.50;;;19.82;62.69
42887;BME280;29032;56.028;92.904;2023-08-12T00:20:03;98356.19;;;19.86;62.40
42887;BME280;29032;56.028;92.904;2023-08-12T00:25:08;98356.31;;;19.88;61.91
42887;BME280;29032;56.028;92.904;2023-08-12T00:30:10;98357.53;;;19.85;62.39
42887;BME280;29032;56.028;92.904;2023-08-12T00:35:12;98368.78;;;19.85;62.26
42887;BME280;29032;56.028;92.904;2023-08-12T00:40:16;98373.56;;;19.94;62.02
42887;BME280;29032;56.028;92.904;2023-08-12T00:45:18;98366.69;;;19.85;61.49
42887;BME280;29032;56.028;92.904;2023-08-12T00:50:20;98353.38;;;19.86;62.08
42887;BME280;29032;56.028;92.904;2023-08-12T00:55:24;98357.78;;;19.89;61.91
42887;BME280;29032;56.028;92.904;2023-08-12T01:00:27;98356.94;;;19.87;62.12
42887;BME280;29032;56.028;92.904;2023-08-12T01:05:30;98364.50;;;19.96;61.29
42887;BME280;29032;56.028;92.904;2023-08-12T01:10:36;98368.06;;;19.96;61.85
42887;BME280;29032;56.028;92.904;2023-08-12T01:15:40;98377.59;;;19.91;61.80
42887;BME280;29032;56.028;92.904;2023-08-12T01:20:45;98373.44;;;19.92;61.76
42887;BME280;29032;56.028;92.904;2023-08-12T01:25:50;98374.16;;;19.93;62.76
42887;BME280;29032;56.028;92.904;2023-08-12T01:30:56;98369.03;;;20.01;61.54
42887;BME280;29032;56.028;92.904;2023-08-12T01:36:06;98372.22;;;20.07;61.39
42887;BME280;29032;56.028;92.904;2023-08-12T01:41:12;98376.16;;;20.02;61.22
42887;BME280;29032;56.028;92.904;2023-08-12T01:46:15;98370.50;;;20.02;61.72
42887;BME280;29032;56.028;92.904;2023-08-12T01:51:17;98372.47;;;20.11;61.21
42887;BME280;29032;56.028;92.904;2023-08-12T01:56:21;98376.63;;;20.22;60.99
42887;BME280;29032;56.028;92.904;2023-08-12T02:01:23;98375.88;;;20.21;60.48
42887;BME280;29032;56.028;92.904;2023-08-12T02:06:25;98380.53;;;20.28;61.44
42887;BME280;29032;56.028;92.904;2023-08-12T02:11:28;98374.16;;;20.28;60.07
42887;BME280;29032;56.028;92.904;2023-08-12T02:16:30;98385.66;;;20.20;60.03
42887;BME280;29032;56.028;92.904;2023-08-12T02:21:32;98379.56;;;20.24;60.78
42887;BME280;29032;56.028;92.904;2023-08-12T02:26:37;98380.53;;;20.28;60.38
42887;BME280;29032;56.028;92.904;2023-08-12T02:31:39;98382.25;;;20.22;61.29
42887;BME280;29032;56.028;92.904;2023-08-12T02:36:41;98386.75;;;20.27;61.03
42887;BME280;29032;56.028;92.904;2023-08-12T02:41:44;98385.06;;;20.33;60.63
42887;BME280;29032;56.028;92.904;2023-08-12T02:46:46;98392.91;;;20.23;60.71
42887;BME280;29032;56.028;92.904;2023-08-12T02:51:49;98388.72;;;20.24;60.47
42887;BME280;29032;56.028;92.904;2023-08-12T02:56:52;98386.16;;;20.40;61.69
42887;BME280;29032;56.028;92.904;2023-08-12T03:01:54;98381.00;;;20.48;59.73
42887;BME280;29032;56.028;92.904;2023-08-12T03:06:56;98379.50;;;20.59;60.36
42887;BME280;29032;56.028;92.904;2023-08-12T03:12:00;98378.50;;;20.78;59.55
42887;BME280;29032;56.028;92.904;2023-08-12T03:17:02;98378.94;;;20.86;58.68
42887;BME280;29032;56.028;92.904;2023-08-12T03:22:05;98376.78;;;20.98;59.21
42887;BME280;29032;56.028;92.904;2023-08-12T03:27:10;98382.53;;;21.12;57.67
42887;BME280;29032;56.028;92.904;2023-08-12T03:32:12;98370.25;;;21.07;58.24
42887;BME280;29032;56.028;92.904;2023-08-12T03:37:14;98369.19;;;21.01;55.28
42887;BME280;29032;56.028;92.904;2023-08-12T03:42:19;98361.34;;;20.99;55.21
42887;BME280;29032;56.028;92.904;2023-08-12T03:47:21;98355.38;;;20.93;56.00
42887;BME280;29032;56.028;92.904;2023-08-12T03:52:24;98343.69;;;20.99;57.08
42887;BME280;29032;56.028;92.904;2023-08-12T03:57:27;98348.06;;;21.13;56.96
42887;BME280;29032;56.028;92.904;2023-08-12T04:02:31;98344.22;;;21.20;57.25
42887;BME280;29032;56.028;92.904;2023-08-12T04:07:33;98345.69;;;21.22;56.59
42887;BME280;29032;56.028;92.904;2023-08-12T04:12:39;98341.94;;;21.31;56.74
42887;BME280;29032;56.028;92.904;2023-08-12T04:17:41;98346.22;;;21.32;57.73
42887;BME280;29032;56.028;92.904;2023-08-12T04:22:44;98347.91;;;21.37;54.79
42887;BME280;29032;56.028;92.904;2023-08-12T04:27:48;98345.44;;;21.43;56.17
42887;BME280;29032;56.028;92.904;2023-08-12T04:32:51;98341.25;;;21.44;54.85
42887;BME280;29032;56.028;92.904;2023-08-12T04:37:54;98338.63;;;21.48;55.37
42887;BME280;29032;56.028;92.904;2023-08-12T04:42:58;98337.59;;;21.55;52.39
42887;BME280;29032;56.028;92.904;2023-08-12T04:48:00;98339.41;;;21.62;53.17
42887;BME280;29032;56.028;92.904;2023-08-12T04:53:04;98329.38;;;21.73;51.02
42887;BME280;29032;56.028;92.904;2023-08-12T04:58:09;98340.59;;;21.85;52.30
42887;BME280;29032;56.028;92.904;2023-08-12T05:03:12;98335.28;;;21.91;50.92
42887;BME280;29032;56.028;92.904;2023-08-12T05:08:14;98333.91;;;21.92;51.92
42887;BME280;29032;56.028;92.904;2023-08-12T05:13:19;98329.31;;;22.12;51.62
42887;BME280;29032;56.028;92.904;2023-08-12T05:18:21;98333.19;;;22.19;51.58
42887;BME280;29032;56.028;92.904;2023-08-12T05:23:23;98331.38;;;22.25;50.83
42887;BME280;29032;56.028;92.904;2023-08-12T05:28:27;98328.75;;;22.43;51.80
42887;BME280;29032;56.028;92.904;2023-08-12T05:33:29;98321.50;;;22.54;52.80
42887;BME280;29032;56.028;92.904;2023-08-12T05:38:31;98315.00;;;22.65;51.45
42887;BME280;29032;56.028;92.904;2023-08-12T05:43:35;98320.59;;;22.79;52.54
42887;BME280;29032;56.028;92.904;2023-08-12T05:48:36;98320.91;;;22.85;51.19
42887;BME280;29032;56.028;92.904;2023-08-12T05:53:38;98316.44;;;22.96;51.55
42887;BME280;29032;56.028;92.904;2023-08-12T05:58:42;98332.25;;;23.01;52.47
42887;BME280;29032;56.028;92.904;2023-08-12T06:03:44;98324.94;;;22.96;52.12
42887;BME280;29032;56.028;92.904;2023-08-12T06:08:46;98323.28;;;22.91;51.36
42887;BME280;29032;56.028;92.904;2023-08-12T06:13:49;98320.34;;;22.89;51.31
42887;BME280;29032;56.028;92.904;2023-08-12T06:18:51;98319.88;;;22.78;51.95
42887;BME280;29032;56.028;92.904;2023-08-12T06:23:53;98319.66;;;22.74;51.04
42887;BME280;29032;56.028;92.904;2023-08-12T06:28:57;98332.13;;;22.83;52.97
42887;BME280;29032;56.028;92.904;2023-08-12T06:33:59;98322.56;;;22.90;53.78
42887;BME280;29032;56.028;92.904;2023-08-12T06:39:01;98323.84;;;23.03;53.43
42887;BME280;29032;56.028;92.904;2023-08-12T06:44:05;98326.16;;;23.22;53.29
42887;BME280;29032;56.028;92.904;2023-08-12T06:49:07;98333.28;;;23.23;51.29
42887;BME280;29032;56.028;92.904;2023-08-12T06:54:09;98339.59;;;23.22;51.00
42887;BME280;29032;56.028;92.904;2023-08-12T06:59:13;98346.00;;;23.22;50.39
42887;BME280;29032;56.028;92.904;2023-08-12T07:04:15;98357.13;;;23.18;50.44
42887;BME280;29032;56.028;92.904;2023-08-12T07:09:17;98349.81;;;23.13;50.57
42887;BME280;29032;56.028;92.904;2023-08-12T07:14:20;98348.72;;;23.20;51.43
42887;BME280;29032;56.028;92.904;2023-08-12T07:19:22;98348.72;;;23.20;52.18
42887;BME280;29032;56.028;92.904;2023-08-12T07:24:24;98340.88;;;23.19;51.40
42887;BME280;29032;56.028;92.904;2023-08-12T07:29:28;98346.53;;;23.19;50.07
42887;BME280;29032;56.028;92.904;2023-08-12T07:34:30;98342.03;;;23.14;50.66
42887;BME280;29032;56.028;92.904;2023-08-12T07:39:32;98337.03;;;23.12;50.27
42887;BME280;29032;56.028;92.904;2023-08-12T07:44:36;98338.88;;;23.21;51.86
42887;BME280;29032;56.028;92.904;2023-08-12T07:49:38;98320.59;;;23.24;50.28
42887;BME280;29032;56.028;92.904;2023-08-12T07:54:40;98315.78;;;23.27;50.77
42887;BME280;29032;56.028;92.904;2023-08-12T07:59:44;98325.69;;;23.42;50.63
42887;BME280;29032;56.028;92.904;2023-08-12T08:04:46;98322.50;;;23.49;50.32
42887;BME280;29032;56.028;92.904;2023-08-12T08:09:48;98324.78;;;23.53;50.64
42887;BME280;29032;56.028;92.904;2023-08-12T08:14:51;98334.00;;;23.69;49.09
42887;BME280;29032;56.028;92.904;2023-08-12T08:19:53;98322.84;;;23.73;49.13
42887;BME280;29032;56.028;92.904;2023-08-12T08:24:55;98318.91;;;23.80;49.16
42887;BME280;29032;56.028;92.904;2023-08-12T08:29:59;98318.25;;;23.98;48.08
42887;BME280;29032;56.028;92.904;2023-08-12T08:35:01;98316.16;;;23.98;47.36
42887;BME280;29032;56.028;92.904;2023-08-12T08:40:03;98314.03;;;23.99;48.83
42887;BME280;29032;56.028;92.904;2023-08-12T08:45:12;98317.31;;;24.09;49.87
42887;BME280;29032;56.028;92.904;2023-08-12T08:50:14;98310.41;;;23.96;47.98
42887;BME280;29032;56.028;92.904;2023-08-12T08:55:16;98307.84;;;24.02;48.32
42887;BME280;29032;56.028;92.904;2023-08-12T09:00:21;98321.13;;;24.31;49.77
42887;BME280;29032;56.028;92.904;2023-08-12T09:05:23;98336.75;;;24.32;48.99
42887;BME280;29032;56.028;92.904;2023-08-12T09:10:26;98343.38;;;24.21;47.13
42887;BME280;29032;56.028;92.904;2023-08-12T09:15:31;98334.53;;;24.13;48.00
42887;BME280;29032;56.028;92.904;2023-08-12T09:20:33;98347.22;;;24.12;48.78
42887;BME280;29032;56.028;92.904;2023-08-12T09:25:35;98348.63;;;24.11;47.98
42887;BME280;29032;56.028;92.904;2023-08-12T09:30:39;98353.97;;;24.20;47.58
42887;BME280;29032;56.028;92.904;2023-08-12T09:35:41;98350.06;;;24.12;48.44
42887;BME280;29032;56.028;92.904;2023-08-12T09:40:46;98359.47;;;24.01;48.96
42887;BME280;29032;56.028;92.904;2023-08-12T09:45:49;98354.09;;;24.07;49.09
42887;BME280;29032;56.028;92.904;2023-08-12T09:50:52;98360.09;;;23.99;47.34
42887;BME280;29032;56.028;92.904;2023-08-12T09:55:54;98352.78;;;23.94;48.19
42887;BME280;29032;56.028;92.904;2023-08-12T10:01:00;98355.00;;;23.96;49.69
42887;BME280;29032;56.028;92.904;2023-08-12T10:06:03;98357.19;;;23.97;47.40
42887;BME280;29032;56.028;92.904;2023-08-12T10:11:07;98357.72;;;23.93;48.83
42887;BME280;29032;56.028;92.904;2023-08-12T10:16:11;98367.97;;;24.01;48.30
42887;BME280;29032;56.028;92.904;2023-08-12T10:21:13;98370.00;;;23.98;47.99
42887;BME280;29032;56.028;92.904;2023-08-12T10:26:17;98357.38;;;24.17;47.92
42887;BME280;29032;56.028;92.904;2023-08-12T10:31:21;98358.50;;;24.77;47.62
42887;BME280;29032;56.028;92.904;2023-08-12T10:36:23;98361.09;;;25.07;45.73
42887;BME280;29032;56.028;92.904;2023-08-12T10:41:25;98353.53;;;25.31;45.91
42887;BME280;29032;56.028;92.904;2023-08-12T10:46:33;98341.75;;;25.39;46.95
42887;BME280;29032;56.028;92.904;2023-08-12T10:51:44;98350.94;;;25.37;45.31
42887;BME280;29032;56.028;92.904;2023-08-12T10:57:06;98356.50;;;25.35;45.05
42887;BME280;29032;56.028;92.904;2023-08-12T11:02:14;98347.00;;;25.09;45.95
42887;BME280;29032;56.028;92.904;2023-08-12T11:07:18;98358.66;;;24.81;46.21
42887;BME280;29032;56.028;92.904;2023-08-12T11:12:30;98359.88;;;24.76;46.02
42887;BME280;29032;56.028;92.904;2023-08-12T11:17:36;98360.38;;;24.55;48.18
42887;BME280;29032;56.028;92.904;2023-08-12T11:22:40;98369.94;;;24.45;48.03
42887;BME280;29032;56.028;92.904;2023-08-12T11:27:44;98371.03;;;24.38;47.44
42887;BME280;29032;56.028;92.904;2023-08-12T11:32:48;98375.06;;;24.33;48.66
42887;BME280;29032;56.028;92.904;2023-08-12T11:37:51;98368.97;;;24.23;47.93
42887;BME280;29032;56.028;92.904;2023-08-12T11:42:54;98382.88;;;24.17;49.24
42887;BME280;29032;56.028;92.904;2023-08-12T11:47:58;98382.06;;;24.14;49.33
42887;BME280;29032;56.028;92.904;2023-08-12T11:53:00;98385.19;;;24.05;49.43
42887;BME280;29032;56.028;92.904;2023-08-12T11:58:02;98380.03;;;24.01;49.48
42887;BME280;29032;56.028;92.904;2023-08-12T12:03:06;98379.41;;;24.03;50.43
42887;BME280;29032;56.028;92.904;2023-08-12T12:08:08;98381.69;;;23.90;49.65
42887;BME280;29032;56.028;92.904;2023-08-12T12:13:11;98366.72;;;23.88;48.94
42887;BME280;29032;56.028;92.904;2023-08-12T12:18:14;98363.88;;;23.88;48.32
42887;BME280;29032;56.028;92.904;2023-08-12T12:23:17;98359.94;;;23.79;48.47
42887;BME280;29032;56.028;92.904;2023-08-12T12:28:19;98356.94;;;23.75;49.72
42887;BME280;29032;56.028;92.904;2023-08-12T12:33:23;98353.91;;;23.71;49.15
42887;BME280;29032;56.028;92.904;2023-08-12T12:38:25;98346.97;;;23.58;49.49
42887;BME280;29032;56.028;92.904;2023-08-12T12:43:27;98343.31;;;23.56;49.21
42887;BME280;29032;56.028;92.904;2023-08-12T12:48:30;98346.22;;;23.58;50.06
42887;BME280;29032;56.028;92.904;2023-08-12T12:53:32;98358.66;;;23.51;50.42
42887;BME280;29032;56.028;92.904;2023-08-12T12:58:35;98341.38;;;23.45;51.38
42887;BME280;29032;56.028;92.904;2023-08-12T13:03:38;98341.28;;;23.43;51.55
42887;BME280;29032;56.028;92.904;2023-08-12T13:08:40;98332.31;;;23.32;52.23
42887;BME280;29032;56.028;92.904;2023-08-12T13:13:42;98367.38;;;23.25;52.77
42887;BME280;29032;56.028;92.904;2023-08-12T13:18:46;98402.97;;;23.30;53.66
42887;BME280;29032;56.028;92.904;2023-08-12T13:23:48;98418.13;;;23.21;53.76
42887;BME280;29032;56.028;92.904;2023-08-12T13:28:50;98436.72;;;23.10;54.30
42887;BME280;29032;56.028;92.904;2023-08-12T13:33:53;98459.78;;;23.05;53.98
42887;BME280;29032;56.028;92.904;2023-08-12T13:38:55;98457.19;;;22.81;54.48
42887;BME280;29032;56.028;92.904;2023-08-12T13:43:57;98456.47;;;22.67;54.98
42887;BME280;29032;56.028;92.904;2023-08-12T13:49:01;98461.84;;;22.61;55.17
42887;BME280;29032;56.028;92.904;2023-08-12T13:54:04;98470.31;;;22.47;55.76
42887;BME280;29032;56.028;92.904;2023-08-12T13:59:06;98480.66;;;22.43;56.48
42887;BME280;29032;56.028;92.904;2023-08-12T14:04:09;98488.59;;;22.46;57.21
42887;BME280;29032;56.028;92.904;2023-08-12T14:09:11;98477.94;;;22.45;56.48
42887;BME280;29032;56.028;92.904;2023-08-12T14:14:13;98462.97;;;22.42;56.27
42887;BME280;29032;56.028;92.904;2023-08-12T14:19:17;98467.88;;;22.42;56.52
42887;BME280;29032;56.028;92.904;2023-08-12T14:24:19;98473.13;;;22.34;56.69
42887;BME280;29032;56.028;92.904;2023-08-12T14:29:21;98466.19;;;22.37;56.76
42887;BME280;29032;56.028;92.904;2023-08-12T14:34:24;98462.88;;;22.40;56.68
42887;BME280;29032;56.028;92.904;2023-08-12T14:39:26;98468.81;;;22.33;57.01
42887;BME280;29032;56.028;92.904;2023-08-12T14:44:28;98470.38;;;22.36;57.33
42887;BME280;29032;56.028;92.904;2023-08-12T14:49:32;98479.06;;;22.40;57.47
42887;BME280;29032;56.028;92.904;2023-08-12T14:54:34;98478.13;;;22.35;57.53
42887;BME280;29032;56.028;92.904;2023-08-12T14:59:36;98483.06;;;22.35;57.43
42887;BME280;29032;56.028;92.904;2023-08-12T15:04:39;98467.25;;;22.29;57.17
42887;BME280;29032;56.028;92.904;2023-08-12T15:09:42;98466.72;;;22.19;57.77
42887;BME280;29032;56.028;92.904;2023-08-12T15:14:44;98469.31;;;22.15;58.75
42887;BME280;29032;56.028;92.904;2023-08-12T15:19:47;98481.06;;;22.23;57.92
42887;BME280;29032;56.028;92.904;2023-08-12T15:24:49;98484.28;;;22.18;58.30
42887;BME280;29032;56.028;92.904;2023-08-12T15:29:51;98503.56;;;22.21;58.03
42887;BME280;29032;56.028;92.904;2023-08-12T15:34:55;98556.75;;;22.39;55.64
42887;BME280;29032;56.028;92.904;2023-08-12T15:39:57;98558.09;;;22.24;54.38
42887;BME280;29032;56.028;92.904;2023-08-12T15:44:59;98591.84;;;22.08;52.31
42887;BME280;29032;56.028;92.904;2023-08-12T15:50:03;98605.41;;;21.98;52.24
42887;BME280;29032;56.028;92.904;2023-08-12T15:55:05;98606.34;;;21.77;52.32
42887;BME280;29032;56.028;92.904;2023-08-12T16:00:08;98623.56;;;21.69;51.83
42887;BME280;29032;56.028;92.904;2023-08-12T16:05:12;98624.56;;;21.62;51.80
42887;BME280;29032;56.028;92.904;2023-08-12T16:10:14;98651.59;;;21.42;51.28
42887;BME280;29032;56.028;92.904;2023-08-12T16:15:16;98651.34;;;21.38;51.60
42887;BME280;29032;56.028;92.904;2023-08-12T16:20:20;98683.50;;;21.44;50.91
42887;BME280;29032;56.028;92.904;2023-08-12T16:25:22;98688.41;;;21.32;51.11
42887;BME280;29032;56.028;92.904;2023-08-12T16:30:24;98705.72;;;21.27;50.75
42887;BME280;29032;56.028;92.904;2023-08-12T16:35:28;98690.38;;;21.30;51.18
42887;BME280;29032;56.028;92.904;2023-08-12T16:40:30;98686.94;;;21.19;50.22
42887;BME280;29032;56.028;92.904;2023-08-12T16:45:32;98686.94;;;21.08;50.29
42887;BME280;29032;56.028;92.904;2023-08-12T16:50:35;98696.75;;;21.07;50.00
42887;BME280;29032;56.028;92.904;2023-08-12T16:55:37;98699.66;;;20.97;50.09
42887;BME280;29032;56.028;92.904;2023-08-12T17:00:39;98701.75;;;20.97;50.27
42887;BME280;29032;56.028;92.904;2023-08-12T17:05:42;98703.72;;;20.94;50.22
42887;BME280;29032;56.028;92.904;2023-08-12T17:10:44;98713.63;;;20.72;51.16
42887;BME280;29032;56.028;92.904;2023-08-12T17:15:46;98717.41;;;20.64;51.83
42887;BME280;29032;56.028;92.904;2023-08-12T17:20:50;98723.16;;;20.66;52.46
42887;BME280;29032;56.028;92.904;2023-08-12T17:25:52;98718.38;;;20.57;52.16
42887;BME280;29032;56.028;92.904;2023-08-12T17:30:54;98722.66;;;20.58;53.01
42887;BME280;29032;56.028;92.904;2023-08-12T17:35:57;98719.97;;;20.60;52.62
42887;BME280;29032;56.028;92.904;2023-08-12T17:41:00;98730.72;;;20.52;53.77
42887;BME280;29032;56.028;92.904;2023-08-12T17:46:02;98747.72;;;20.43;56.81
42887;BME280;29032;56.028;92.904;2023-08-12T17:51:05;98740.00;;;20.43;56.34
42887;BME280;29032;56.028;92.904;2023-08-12T17:56:07;98744.25;;;20.32;55.90
42887;BME280;29032;56.028;92.904;2023-08-12T18:01:10;98742.16;;;20.33;56.40
42887;BME280;29032;56.028;92.904;2023-08-12T18:06:13;98748.81;;;20.37;57.25
42887;BME280;29032;56.028;92.904;2023-08-12T18:11:15;98757.59;;;20.32;56.47
42887;BME280;29032;56.028;92.904;2023-08-12T18:16:17;98773.16;;;20.33;57.02
42887;BME280;29032;56.028;92.904;2023-08-12T18:21:21;98763.50;;;20.36;57.64
42887;BME280;29032;56.028;92.904;2023-08-12T18:26:23;98774.50;;;20.32;56.12
42887;BME280;29032;56.028;92.904;2023-08-12T18:31:25;98770.81;;;20.29;56.55
42887;BME280;29032;56.028;92.904;2023-08-12T18:36:28;98770.09;;;20.29;56.08
42887;BME280;29032;56.028;92.904;2023-08-12T18:41:30;98757.50;;;20.20;55.98
42887;BME280;29032;56.028;92.904;2023-08-12T18:46:32;98758.00;;;20.17;54.75
42887;BME280;29032;56.028;92.904;2023-08-12T18:51:36;98763.88;;;20.21;55.14
42887;BME280;29032;56.028;92.904;2023-08-12T18:56:38;98759.34;;;20.16;55.15
42887;BME280;29032;56.028;92.904;2023-08-12T19:01:40;98770.44;;;20.13;55.67
42887;BME280;29032;56.028;92.904;2023-08-12T19:06:43;98764.38;;;20.17;55.85
42887;BME280;29032;56.028;92.904;2023-08-12T19:11:45;98775.84;;;20.09;56.37
42887;BME280;29032;56.028;92.904;2023-08-12T19:16:47;98793.81;;;20.04;56.25
42887;BME280;29032;56.028;92.904;2023-08-12T19:21:51;98814.72;;;20.01;56.97
42887;BME280;29032;56.028;92.904;2023-08-12T19:26:53;98802.34;;;19.85;58.86
42887;BME280;29032;56.028;92.904;2023-08-12T19:31:55;98808.78;;;19.76;60.09
42887;BME280;29032;56.028;92.904;2023-08-12T19:36:58;98800.13;;;19.62;61.31
42887;BME280;29032;56.028;92.904;2023-08-12T19:42:00;98810.69;;;19.42;61.21
42887;BME280;29032;56.028;92.904;2023-08-12T19:47:02;98800.03;;;19.41;62.06
42887;BME280;29032;56.028;92.904;2023-08-12T19:52:06;98806.13;;;19.37;61.94
42887;BME280;29032;56.028;92.904;2023-08-12T19:57:08;98803.06;;;19.14;62.48
42887;BME280;29032;56.028;92.904;2023-08-12T20:02:10;98796.03;;;18.93;63.18
42887;BME280;29032;56.028;92.904;2023-08-12T20:07:14;98809.19;;;18.91;64.18
42887;BME280;29032;56.028;92.904;2023-08-12T20:12:16;98816.16;;;18.80;63.94
42887;BME280;29032;56.028;92.904;2023-08-12T20:17:18;98823.13;;;18.79;63.82
42887;BME280;29032;56.028;92.904;2023-08-12T20:22:21;98818.84;;;18.78;64.00
42887;BME280;29032;56.028;92.904;2023-08-12T20:27:23;98821.94;;;18.63;64.69
42887;BME280;29032;56.028;92.904;2023-08-12T20:32:25;98816.47;;;18.65;64.72
42887;BME280;29032;56.028;92.904;2023-08-12T20:37:30;98823.56;;;18.75;65.09
42887;BME280;29032;56.028;92.904;2023-08-12T20:42:32;98833.03;;;18.80;62.41
42887;BME280;29032;56.028;92.904;2023-08-12T20:47:34;98825.19;;;18.88;62.14
42887;BME280;29032;56.028;92.904;2023-08-12T20:52:37;98829.47;;;18.99;61.44
42887;BME280;29032;56.028;92.904;2023-08-12T20:57:39;98823.69;;;18.97;61.81
42887;BME280;29032;56.028;92.904;2023-08-12T21:02:42;98813.06;;;18.95;61.35
42887;BME280;29032;56.028;92.904;2023-08-12T21:07:46;98822.19;;;19.06;61.26
42887;BME280;29032;56.028;92.904;2023-08-12T21:12:48;98837.28;;;19.00;60.81
42887;BME280;29032;56.028;92.904;2023-08-12T21:17:52;98831.53;;;18.98;62.39
42887;BME280;29032;56.028;92.904;2023-08-12T21:22:55;98830.50;;;19.03;61.97
42887;BME280;29032;56.028;92.904;2023-08-12T21:27:57;98834.34;;;18.98;62.38
42887;BME280;29032;56.028;92.904;2023-08-12T21:32:59;98847.06;;;18.99;62.23
42887;BME280;29032;56.028;92.904;2023-08-12T21:38:03;98851.94;;;18.99;63.02
42887;BME280;29032;56.028;92.904;2023-08-12T21:43:05;98859.22;;;18.92;62.96
42887;BME280;29032;56.028;92.904;2023-08-12T21:48:07;98872.38;;;18.90;62.71
42887;BME280;29032;56.028;92.904;2023-08-12T21:53:11;98887.03;;;18.88;63.77
42887;BME280;29032;56.028;92.904;2023-08-12T21:58:13;98888.50;;;18.70;63.93
42887;BME280;29032;56.028;92.904;2023-08-12T22:03:15;98895.13;;;18.55;64.87
42887;BME280;29032;56.028;92.904;2023-08-12T22:08:19;98913.81;;;18.60;63.92
42887;BME280;29032;56.028;92.904;2023-08-12T22:13:21;98908.94;;;18.61;63.22
42887;BME280;29032;56.028;92.904;2023-08-12T22:18:23;98917.66;;;18.65;63.34
42887;BME280;29032;56.028;92.904;2023-08-12T22:23:26;98922.38;;;18.72;63.44
42887;BME280;29032;56.028;92.904;2023-08-12T22:28:28;98929.06;;;18.67;62.79
42887;BME280;29032;56.028;92.904;2023-08-12T22:33:30;98937.31;;;18.65;63.09
42887;BME280;29032;56.028;92.904;2023-08-12T22:38:34;98951.97;;;18.73;63.10
42887;BME280;29032;56.028;92.904;2023-08-12T22:43:36;98947.69;;;18.72;63.12
42887;BME280;29032;56.028;92.904;2023-08-12T22:48:38;98946.94;;;18.71;63.18
42887;BME280;29032;56.028;92.904;2023-08-12T22:53:41;98946.50;;;18.75;63.12
42887;BME280;29032;56.028;92.904;2023-08-12T22:58:44;98945.78;;;18.74;63.37
42887;BME280;29032;56.028;92.904;2023-08-12T23:03:46;98941.19;;;18.69;64.15
42887;BME280;29032;56.028;92.904;2023-08-12T23:08:50;98959.22;;;18.76;63.38
42887;BME280;29032;56.028;92.904;2023-08-12T23:13:52;98937.63;;;18.69;64.15
42887;BME280;29032;56.028;92.904;2023-08-12T23:18:54;98935.09;;;18.73;63.53
42887;BME280;29032;56.028;92.904;2023-08-12T23:23:57;98937.78;;;18.81;63.37
42887;BME280;29032;56.028;92.904;2023-08-12T23:28:59;98946.78;;;18.79;62.83
42887;BME280;29032;56.028;92.904;2023-08-12T23:34:01;98942.66;;;18.80;62.77
42887;BME280;29032;56.028;92.904;2023-08-12T23:39:05;98938.81;;;18.85;62.75
42887;BME280;29032;56.028;92.904;2023-08-12T23:44:07;98944.16;;;18.81;63.18
42887;BME280;29032;56.028;92.904;2023-08-12T23:49:09;98931.13;;;18.76;63.16
42887;BME280;29032;56.028;92.904;2023-08-12T23:54:12;98943.84;;;18.77;63.04
42887;BME280;29032;56.028;92.904;2023-08-12T23:59:14;98936.75;;;18.76;63.15
